sensor_id;sensor_type;location;lat;lon;timestamp;pressure;altitude;pressure_sealevel;temperature;humidity
59170;BME280;52474;52.236;5.114;2023-03-03T00:01:23;102606.38;;;1.27;100.00
59170;BME280;52474;52.236;5.114;2023-03-03T00:03:50;102590.16;;;1.10;100.00
59170;BME280;52474;52.236;5.114;2023-03-03T00:06:16;102549.63;;;0.89;100.00
59170;BME280;52474;52.236;5.114;2023-03-03T00:08:42;102606.34;;;1.28;100.00
59170;BME280;52474;52.236;5.114;2023-03-03T00:11:09;102589.06;;;1.21;100.00
59170;BME280;52474;52.236;5.114;2023-03-03T00:13:49;102622.84;;;1.31;100.00
59170;BME280;52474;52.236;5.114;2023-03-03T00:16:24;102585.72;;;1.15;100.00
59170;BME280;52474;52.236;5.114;2023-03-03T00:18:52;102614.91;;;1.35;100.00
59170;BME280;52474;52.236;5.114;2023-03-03T00:21:46;102621.03;;;1.34;100.00
59170;BME280;52474;52.236;5.114;2023-03-03T00:24:36;102620.19;;;1.32;100.00
59170;BME280;52474;52.236;5.114;2023-03-03T00:27:30;102613.34;;;1.25;100.00
59170;BME280;52474;52.236;5.114;2023-03-03T00:29:59;102616.09;;;1.17;100.00
59170;BME280;52474;52.236;5.114;2023-03-03T00:32:41;102564.47;;;0.87;100.00
59170;BME280;52474;52.236;5.114;2023-03-03T00:37:57;102598.13;;;1.00;100.00
59170;BME280;52474;52.236;5.114;2023-03-03T00:40:26;102624.13;;;1.06;100.00
59170;BME280;52474;52.236;5.114;2023-03-03T00:42:58;102624.19;;;1.03;100.00
59170;BME280;52474;52.236;5.114;2023-03-03T00:45:47;102632.03;;;1.03;100.00
59170;BME280;52474;52.236;5.114;2023-03-03T00:48:26;102624.34;;;0.94;100.00
59170;BME280;52474;52.236;5.114;2023-03-03T00:50:55;102608.00;;;0.83;100.00
59170;BME280;52474;52.236;5.114;2023-03-03T00:53:22;102626.19;;;0.88;100.00
59170;BME280;52474;52.236;5.114;2023-03-03T00:55:49;102613.28;;;0.78;100.00
59170;BME280;52474;52.236;5.114;2023-03-03T00:58:17;102608.97;;;0.76;100.00
59170;BME280;52474;52.236;5.114;2023-03-03T01:00:48;102630.47;;;0.92;100.00
59170;BME280;52474;52.236;5.114;2023-03-03T01:03:19;102630.66;;;0.79;100.00
59170;BME280;52474;52.236;5.114;2023-03-03T01:05:47;102642.88;;;0.77;100.00
59170;BME280;52474;52.236;5.114;2023-03-03T01:08:16;102646.31;;;0.78;100.00
59170;BME280;52474;52.236;5.114;2023-03-03T01:10:52;102631.75;;;0.64;100.00
59170;BME280;52474;52.236;5.114;2023-03-03T01:13:21;102649.84;;;0.74;100.00
59170;BME280;52474;52.236;5.114;2023-03-03T01:15:48;102661.13;;;0.77;100.00
59170;BME280;52474;52.236;5.114;2023-03-03T01:18:14;102643.81;;;0.72;100.00
59170;BME280;52474;52.236;5.114;2023-03-03T01:20:40;102651.72;;;0.66;100.00
59170;BME280;52474;52.236;5.114;2023-03-03T01:23:06;102639.69;;;0.57;100.00
59170;BME280;52474;52.236;5.114;2023-03-03T01:25:32;102642.31;;;0.55;100.00
59170;BME280;52474;52.236;5.114;2023-03-03T01:27:58;102638.94;;;0.49;100.00
59170;BME280;52474;52.236;5.114;2023-03-03T01:30:24;102641.66;;;0.41;100.00
59170;BME280;52474;52.236;5.114;2023-03-03T01:32:51;102640.00;;;0.35;100.00
59170;BME280;52474;52.236;5.114;2023-03-03T01:35:16;102607.31;;;0.13;100.00
59170;BME280;52474;52.236;5.114;2023-03-03T01:37:42;102636.78;;;0.16;100.00
59170;BME280;52474;52.236;5.114;2023-03-03T01:40:14;102653.25;;;0.18;100.00
59170;BME280;52474;52.236;5.114;2023-03-03T01:42:40;102628.28;;;0.02;100.00
59170;BME280;52474;52.236;5.114;2023-03-03T01:45:16;102653.25;;;0.17;100.00
59170;BME280;52474;52.236;5.114;2023-03-03T01:47:51;102654.09;;;0.19;100.00
59170;BME280;52474;52.236;5.114;2023-03-03T01:50:26;102651.50;;;0.20;100.00
59170;BME280;52474;52.236;5.114;2023-03-03T01:52:54;102649.75;;;0.21;100.00
59170;BME280;52474;52.236;5.114;2023-03-03T01:55:25;102636.81;;;0.12;100.00
59170;BME280;52474;52.236;5.114;2023-03-03T01:58:20;102629.91;;;0.11;100.00
59170;BME280;52474;52.236;5.114;2023-03-03T02:00:55;102623.81;;;0.12;100.00
59170;BME280;52474;52.236;5.114;2023-03-03T02:03:23;102649.69;;;0.26;100.00
59170;BME280;52474;52.236;5.114;2023-03-03T02:05:50;102656.66;;;0.22;100.00
59170;BME280;52474;52.236;5.114;2023-03-03T02:08:20;102654.78;;;0.33;100.00
59170;BME280;52474;52.236;5.114;2023-03-03T02:10:49;102654.84;;;0.29;100.00
59170;BME280;52474;52.236;5.114;2023-03-03T02:13:14;102658.25;;;0.35;100.00
59170;BME280;52474;52.236;5.114;2023-03-03T02:15:40;102634.06;;;0.24;100.00
59170;BME280;52474;52.236;5.114;2023-03-03T02:18:10;102667.75;;;0.39;100.00
59170;BME280;52474;52.236;5.114;2023-03-03T02:20:49;102661.66;;;0.40;100.00
59170;BME280;52474;52.236;5.114;2023-03-03T02:23:29;102638.25;;;0.34;100.00
59170;BME280;52474;52.236;5.114;2023-03-03T02:28:25;102625.34;;;0.27;100.00
59170;BME280;52474;52.236;5.114;2023-03-03T02:30:56;102654.63;;;0.46;100.00
59170;BME280;52474;52.236;5.114;2023-03-03T02:33:23;102655.47;;;0.48;100.00
59170;BME280;52474;52.236;5.114;2023-03-03T02:35:50;102649.34;;;0.50;100.00
59170;BME280;52474;52.236;5.114;2023-03-03T02:38:23;102649.41;;;0.47;100.00
59170;BME280;52474;52.236;5.114;2023-03-03T02:40:58;102646.78;;;0.47;100.00
59170;BME280;52474;52.236;5.114;2023-03-03T02:43:33;102647.72;;;0.41;100.00
59170;BME280;52474;52.236;5.114;2023-03-03T02:46:01;102605.41;;;0.24;100.00
59170;BME280;52474;52.236;5.114;2023-03-03T02:48:27;102658.03;;;0.51;100.00
59170;BME280;52474;52.236;5.114;2023-03-03T02:50:52;102651.97;;;0.50;100.00
59170;BME280;52474;52.236;5.114;2023-03-03T02:53:18;102654.63;;;0.47;100.00
59170;BME280;52474;52.236;5.114;2023-03-03T02:55:44;102614.91;;;0.28;100.00
59170;BME280;52474;52.236;5.114;2023-03-03T02:58:09;102631.34;;;0.33;100.00
59170;BME280;52474;52.236;5.114;2023-03-03T03:00:35;102647.88;;;0.32;100.00
59170;BME280;52474;52.236;5.114;2023-03-03T03:03:01;102658.25;;;0.35;100.00
59170;BME280;52474;52.236;5.114;2023-03-03T03:05:26;102659.09;;;0.34;100.00
59170;BME280;52474;52.236;5.114;2023-03-03T03:07:53;102627.19;;;0.18;100.00
59170;BME280;52474;52.236;5.114;2023-03-03T03:10:19;102651.28;;;0.36;100.00
59170;BME280;52474;52.236;5.114;2023-03-03T03:12:45;102650.38;;;0.40;100.00
59170;BME280;52474;52.236;5.114;2023-03-03T03:15:12;102658.13;;;0.45;100.00
59170;BME280;52474;52.236;5.114;2023-03-03T03:17:38;102650.31;;;0.43;100.00
59170;BME280;52474;52.236;5.114;2023-03-03T03:20:05;102649.47;;;0.42;100.00
59170;BME280;52474;52.236;5.114;2023-03-03T03:22:32;102649.50;;;0.39;100.00
59170;BME280;52474;52.236;5.114;2023-03-03T03:24:58;102648.63;;;0.39;100.00
59170;BME280;52474;52.236;5.114;2023-03-03T03:27:24;102648.63;;;0.40;100.00
59170;BME280;52474;52.236;5.114;2023-03-03T03:29:50;102644.25;;;0.41;100.00
59170;BME280;52474;52.236;5.114;2023-03-03T03:32:17;102653.78;;;0.45;100.00
59170;BME280;52474;52.236;5.114;2023-03-03T03:34:43;102650.31;;;0.41;100.00
59170;BME280;52474;52.236;5.114;2023-03-03T03:37:10;102646.81;;;0.46;100.00
59170;BME280;52474;52.236;5.114;2023-03-03T03:39:37;102644.25;;;0.42;100.00
59170;BME280;52474;52.236;5.114;2023-03-03T03:42:03;102629.56;;;0.35;100.00
59170;BME280;52474;52.236;5.114;2023-03-03T03:44:29;102655.47;;;0.48;100.00
59170;BME280;52474;52.236;5.114;2023-03-03T03:46:55;102658.97;;;0.45;100.00
59170;BME280;52474;52.236;5.114;2023-03-03T03:49:20;102662.41;;;0.49;100.00
59170;BME280;52474;52.236;5.114;2023-03-03T03:51:51;102616.78;;;0.18;100.00
59170;BME280;52474;52.236;5.114;2023-03-03T03:54:19;102661.50;;;0.51;100.00
59170;BME280;52474;52.236;5.114;2023-03-03T03:56:45;102660.63;;;0.52;100.00
59170;BME280;52474;52.236;5.114;2023-03-03T03:59:11;102597.75;;;0.13;100.00
59170;BME280;52474;52.236;5.114;2023-03-03T04:01:37;102665.69;;;0.61;100.00
59170;BME280;52474;52.236;5.114;2023-03-03T04:04:03;102652.00;;;0.47;100.00
59170;BME280;52474;52.236;5.114;2023-03-03T04:06:30;102671.84;;;0.57;100.00
59170;BME280;52474;52.236;5.114;2023-03-03T04:08:56;102646.81;;;0.46;100.00
59170;BME280;52474;52.236;5.114;2023-03-03T04:11:22;102670.09;;;0.59;100.00
59170;BME280;52474;52.236;5.114;2023-03-03T04:13:48;102645.13;;;0.41;100.00
59170;BME280;52474;52.236;5.114;2023-03-03T04:16:14;102668.41;;;0.54;100.00
59170;BME280;52474;52.236;5.114;2023-03-03T04:18:41;102670.16;;;0.53;100.00
59170;BME280;52474;52.236;5.114;2023-03-03T04:21:12;102665.78;;;0.54;100.00
59170;BME280;52474;52.236;5.114;2023-03-03T04:23:39;102668.34;;;0.58;100.00
59170;BME280;52474;52.236;5.114;2023-03-03T04:26:06;102664.94;;;0.53;100.00
59170;BME280;52474;52.236;5.114;2023-03-03T04:28:32;102670.94;;;0.58;100.00
59170;BME280;52474;52.236;5.114;2023-03-03T04:30:58;102679.63;;;0.59;100.00
59170;BME280;52474;52.236;5.114;2023-03-03T04:33:25;102674.38;;;0.62;100.00
59170;BME280;52474;52.236;5.114;2023-03-03T04:35:52;102682.16;;;0.63;100.00
59170;BME280;52474;52.236;5.114;2023-03-03T04:38:18;102648.50;;;0.47;100.00
59170;BME280;52474;52.236;5.114;2023-03-03T04:40:45;102676.13;;;0.61;100.00
59170;BME280;52474;52.236;5.114;2023-03-03T04:43:12;102668.38;;;0.55;100.00
59170;BME280;52474;52.236;5.114;2023-03-03T04:45:38;102676.09;;;0.63;100.00
59170;BME280;52474;52.236;5.114;2023-03-03T04:48:04;102677.88;;;0.61;100.00
59170;BME280;52474;52.236;5.114;2023-03-03T04:50:30;102682.22;;;0.62;100.00
59170;BME280;52474;52.236;5.114;2023-03-03T04:52:56;102683.03;;;0.66;100.00
59170;BME280;52474;52.236;5.114;2023-03-03T04:55:22;102686.47;;;0.66;100.00
59170;BME280;52474;52.236;5.114;2023-03-03T04:57:48;102683.84;;;0.69;100.00
59170;BME280;52474;52.236;5.114;2023-03-03T05:00:14;102685.50;;;0.73;100.00
59170;BME280;52474;52.236;5.114;2023-03-03T05:02:40;102667.47;;;0.59;100.00
59170;BME280;52474;52.236;5.114;2023-03-03T05:05:07;102657.03;;;0.59;100.00
59170;BME280;52474;52.236;5.114;2023-03-03T05:07:37;102681.13;;;0.75;100.00
59170;BME280;52474;52.236;5.114;2023-03-03T05:10:02;102654.41;;;0.61;100.00
59170;BME280;52474;52.236;5.114;2023-03-03T05:12:28;102649.16;;;0.64;100.00
59170;BME280;52474;52.236;5.114;2023-03-03T05:14:57;102660.41;;;0.66;100.00
59170;BME280;52474;52.236;5.114;2023-03-03T05:17:22;102679.25;;;0.83;100.00
59170;BME280;52474;52.236;5.114;2023-03-03T05:19:48;102679.19;;;0.88;100.00
59170;BME280;52474;52.236;5.114;2023-03-03T05:22:14;102674.09;;;0.82;100.00
59170;BME280;52474;52.236;5.114;2023-03-03T05:24:39;102668.81;;;0.87;100.00
59170;BME280;52474;52.236;5.114;2023-03-03T05:27:07;102671.44;;;0.85;100.00
59170;BME280;52474;52.236;5.114;2023-03-03T05:29:33;102671.38;;;0.90;100.00
59170;BME280;52474;52.236;5.114;2023-03-03T05:31:59;102649.72;;;0.83;100.00
59170;BME280;52474;52.236;5.114;2023-03-03T05:34:26;102641.97;;;0.78;100.00
59170;BME280;52474;52.236;5.114;2023-03-03T05:36:51;102646.28;;;0.81;100.00
59170;BME280;52474;52.236;5.114;2023-03-03T05:39:17;102677.31;;;0.98;100.00
59170;BME280;52474;52.236;5.114;2023-03-03T05:41:43;102645.41;;;0.80;100.00
59170;BME280;52474;52.236;5.114;2023-03-03T05:44:08;102672.94;;;0.98;100.00
59170;BME280;52474;52.236;5.114;2023-03-03T05:46:34;102671.28;;;0.94;100.00
59170;BME280;52474;52.236;5.114;2023-03-03T05:49:00;102672.09;;;0.98;100.00
59170;BME280;52474;52.236;5.114;2023-03-03T05:51:26;102668.63;;;0.99;100.00
59170;BME280;52474;52.236;5.114;2023-03-03T05:53:52;102662.63;;;0.92;100.00
59170;BME280;52474;52.236;5.114;2023-03-03T05:56:18;102653.97;;;0.89;100.00
59170;BME280;52474;52.236;5.114;2023-03-03T05:58:43;102675.53;;;1.01;100.00
59170;BME280;52474;52.236;5.114;2023-03-03T06:01:09;102660.91;;;0.91;100.00
59170;BME280;52474;52.236;5.114;2023-03-03T06:03:35;102655.72;;;0.90;100.00
59170;BME280;52474;52.236;5.114;2023-03-03T06:06:00;102682.38;;;1.09;100.00
59170;BME280;52474;52.236;5.114;2023-03-03T06:08:26;102686.72;;;1.08;100.00
59170;BME280;52474;52.236;5.114;2023-03-03T06:10:52;102686.75;;;1.06;100.00
59170;BME280;52474;52.236;5.114;2023-03-03T06:13:18;102666.03;;;0.96;100.00
59170;BME280;52474;52.236;5.114;2023-03-03T06:15:44;102690.16;;;1.10;100.00
59170;BME280;52474;52.236;5.114;2023-03-03T06:18:10;102688.44;;;1.09;100.00
59170;BME280;52474;52.236;5.114;2023-03-03T06:20:35;102684.88;;;1.15;100.00
59170;BME280;52474;52.236;5.114;2023-03-03T06:23:03;102697.06;;;1.16;100.00
59170;BME280;52474;52.236;5.114;2023-03-03T06:25:29;102698.75;;;1.18;100.00
59170;BME280;52474;52.236;5.114;2023-03-03T06:27:55;102684.81;;;1.19;100.00
59170;BME280;52474;52.236;5.114;2023-03-03T06:30:21;102698.66;;;1.23;100.00
59170;BME280;52474;52.236;5.114;2023-03-03T06:32:46;102694.25;;;1.26;100.00
59170;BME280;52474;52.236;5.114;2023-03-03T06:35:12;102695.94;;;1.31;100.00
59170;BME280;52474;52.236;5.114;2023-03-03T06:37:38;102688.97;;;1.29;100.00
59170;BME280;52474;52.236;5.114;2023-03-03T06:40:04;102685.69;;;1.18;100.00
59170;BME280;52474;52.236;5.114;2023-03-03T06:42:30;102698.50;;;1.32;100.00
59170;BME280;52474;52.236;5.114;2023-03-03T06:44:56;102708.03;;;1.35;100.00
59170;BME280;52474;52.236;5.114;2023-03-03T06:47:21;102704.53;;;1.36;100.00
59170;BME280;52474;52.236;5.114;2023-03-03T06:49:47;102702.66;;;1.42;100.00
59170;BME280;52474;52.236;5.114;2023-03-03T06:52:17;102711.25;;;1.49;100.00
59170;BME280;52474;52.236;5.114;2023-03-03T06:54:44;102701.81;;;1.43;100.00
59170;BME280;52474;52.236;5.114;2023-03-03T06:57:25;102710.25;;;1.58;100.00
59170;BME280;52474;52.236;5.114;2023-03-03T06:59:53;102718.09;;;1.58;100.00
59170;BME280;52474;52.236;5.114;2023-03-03T07:02:20;102724.97;;;1.62;100.00
59170;BME280;52474;52.236;5.114;2023-03-03T07:04:46;102719.66;;;1.68;100.00
59170;BME280;52474;52.236;5.114;2023-03-03T07:07:21;102725.66;;;1.73;100.00
59170;BME280;52474;52.236;5.114;2023-03-03T07:09:53;102723.06;;;1.71;100.00
59170;BME280;52474;52.236;5.114;2023-03-03T07:12:28;102731.72;;;1.75;100.00
59170;BME280;52474;52.236;5.114;2023-03-03T07:18:33;102714.91;;;1.87;100.00
59170;BME280;52474;52.236;5.114;2023-03-03T07:21:13;102717.44;;;1.93;100.00
59170;BME280;52474;52.236;5.114;2023-03-03T07:23:41;102725.03;;;2.07;100.00
59170;BME280;52474;52.236;5.114;2023-03-03T07:26:12;102742.25;;;2.17;100.00
59170;BME280;52474;52.236;5.114;2023-03-03T07:28:43;102733.50;;;2.17;100.00
59170;BME280;52474;52.236;5.114;2023-03-03T07:33:50;102746.81;;;2.49;100.00
59170;BME280;52474;52.236;5.114;2023-03-03T07:36:25;102715.97;;;2.23;100.00
59170;BME280;52474;52.236;5.114;2023-03-03T07:38:53;102752.78;;;2.56;100.00
59170;BME280;52474;52.236;5.114;2023-03-03T07:41:20;102727.84;;;2.38;100.00
59170;BME280;52474;52.236;5.114;2023-03-03T07:43:52;102748.81;;;2.77;100.00
59170;BME280;52474;52.236;5.114;2023-03-03T07:48:57;102759.28;;;2.78;100.00
59170;BME280;52474;52.236;5.114;2023-03-03T07:51:56;102757.31;;;2.87;100.00
59170;BME280;52474;52.236;5.114;2023-03-03T07:54:38;102765.19;;;2.85;100.00
59170;BME280;52474;52.236;5.114;2023-03-03T07:57:18;102745.31;;;2.78;100.00
59170;BME280;52474;52.236;5.114;2023-03-03T08:03:03;102765.84;;;2.95;100.00
59170;BME280;52474;52.236;5.114;2023-03-03T08:10:50;102773.34;;;3.12;100.00
59170;BME280;52474;52.236;5.114;2023-03-03T08:13:18;102750.63;;;3.12;100.00
59170;BME280;52474;52.236;5.114;2023-03-03T08:15:47;102776.22;;;3.37;100.00
59170;BME280;52474;52.236;5.114;2023-03-03T08:18:33;102772.16;;;3.61;100.00
59170;BME280;52474;52.236;5.114;2023-03-03T08:23:28;102784.81;;;3.42;100.00
59170;BME280;52474;52.236;5.114;2023-03-03T08:25:54;102772.72;;;3.38;100.00
59170;BME280;52474;52.236;5.114;2023-03-03T08:28:20;102777.66;;;3.50;100.00
59170;BME280;52474;52.236;5.114;2023-03-03T08:30:47;102731.03;;;3.64;100.00
59170;BME280;52474;52.236;5.114;2023-03-03T08:33:14;102785.13;;;4.00;100.00
59170;BME280;52474;52.236;5.114;2023-03-03T08:35:40;102782.22;;;3.76;100.00
59170;BME280;52474;52.236;5.114;2023-03-03T08:38:07;102751.94;;;3.66;100.00
59170;BME280;52474;52.236;5.114;2023-03-03T08:40:33;102784.88;;;4.09;100.00
59170;BME280;52474;52.236;5.114;2023-03-03T08:43:00;102771.03;;;4.04;100.00
59170;BME280;52474;52.236;5.114;2023-03-03T08:45:26;102777.84;;;4.72;100.00
59170;BME280;52474;52.236;5.114;2023-03-03T08:47:52;102778.56;;;4.77;100.00
59170;BME280;52474;52.236;5.114;2023-03-03T08:50:18;102780.91;;;4.86;100.00
59170;BME280;52474;52.236;5.114;2023-03-03T08:52:45;102784.47;;;4.85;100.00
59170;BME280;52474;52.236;5.114;2023-03-03T08:55:11;102780.19;;;4.81;100.00
59170;BME280;52474;52.236;5.114;2023-03-03T08:57:37;102791.91;;;4.69;100.00
59170;BME280;52474;52.236;5.114;2023-03-03T09:00:09;102779.41;;;5.07;100.00
59170;BME280;52474;52.236;5.114;2023-03-03T09:02:36;102786.84;;;5.48;100.00
59170;BME280;52474;52.236;5.114;2023-03-03T09:05:03;102781.41;;;6.31;100.00
59170;BME280;52474;52.236;5.114;2023-03-03T09:07:29;102760.22;;;6.81;100.00
59170;BME280;52474;52.236;5.114;2023-03-03T09:09:55;102779.97;;;7.37;100.00
59170;BME280;52474;52.236;5.114;2023-03-03T09:14:57;102778.13;;;7.17;100.00
59170;BME280;52474;52.236;5.114;2023-03-03T09:19:57;102762.16;;;8.44;100.00
59170;BME280;52474;52.236;5.114;2023-03-03T09:22:25;102773.44;;;8.67;100.00
59170;BME280;52474;52.236;5.114;2023-03-03T09:24:56;102768.03;;;9.42;100.00
59170;BME280;52474;52.236;5.114;2023-03-03T09:27:26;102773.09;;;9.64;100.00
59170;BME280;52474;52.236;5.114;2023-03-03T09:29:53;102764.56;;;11.99;100.00
59170;BME280;52474;52.236;5.114;2023-03-03T09:34:45;102747.19;;;9.00;100.00
59170;BME280;52474;52.236;5.114;2023-03-03T09:37:28;102762.66;;;9.79;100.00
59170;BME280;52474;52.236;5.114;2023-03-03T09:39:57;102770.19;;;7.61;100.00
59170;BME280;52474;52.236;5.114;2023-03-03T09:42:41;102770.56;;;6.85;100.00
59170;BME280;52474;52.236;5.114;2023-03-03T09:45:22;102761.44;;;6.49;100.00
59170;BME280;52474;52.236;5.114;2023-03-03T09:56:40;102717.25;;;20.65;97.94
59170;BME280;52474;52.236;5.114;2023-03-03T09:59:12;102761.03;;;22.09;91.12
59170;BME280;52474;52.236;5.114;2023-03-03T10:04:41;102772.84;;;18.23;100.00
59170;BME280;52474;52.236;5.114;2023-03-03T10:07:19;102779.13;;;17.17;100.00
59170;BME280;52474;52.236;5.114;2023-03-03T10:12:27;102774.88;;;16.26;100.00
59170;BME280;52474;52.236;5.114;2023-03-03T10:23:23;102766.66;;;23.42;70.05
59170;BME280;52474;52.236;5.114;2023-03-03T10:36:32;102766.50;;;25.63;58.44
59170;BME280;52474;52.236;5.114;2023-03-03T10:42:14;102769.69;;;23.06;60.29
59170;BME280;52474;52.236;5.114;2023-03-03T10:50:30;102769.00;;;23.94;58.75
59170;BME280;52474;52.236;5.114;2023-03-03T11:03:46;102748.69;;;18.23;82.34
59170;BME280;52474;52.236;5.114;2023-03-03T11:11:23;102756.38;;;20.22;92.34
59170;BME280;52474;52.236;5.114;2023-03-03T11:14:12;102764.00;;;26.66;50.37
59170;BME280;52474;52.236;5.114;2023-03-03T11:33:46;102763.00;;;11.20;100.00
59170;BME280;52474;52.236;5.114;2023-03-03T11:36:20;102757.53;;;10.44;100.00
59170;BME280;52474;52.236;5.114;2023-03-03T11:39:03;102751.91;;;9.82;100.00
59170;BME280;52474;52.236;5.114;2023-03-03T11:44:37;102767.75;;;9.12;100.00
59170;BME280;52474;52.236;5.114;2023-03-03T11:47:16;102742.47;;;17.50;100.00
59170;BME280;52474;52.236;5.114;2023-03-03T11:53:25;102747.75;;;22.50;70.68
59170;BME280;52474;52.236;5.114;2023-03-03T11:56:23;102740.19;;;24.09;56.71
59170;BME280;52474;52.236;5.114;2023-03-03T12:01:41;102742.66;;;24.67;51.54
59170;BME280;52474;52.236;5.114;2023-03-03T12:04:14;102723.38;;;27.01;43.95
59170;BME280;52474;52.236;5.114;2023-03-03T12:15:35;102745.94;;;11.24;100.00
59170;BME280;52474;52.236;5.114;2023-03-03T12:23:45;102746.97;;;9.76;100.00
59170;BME280;52474;52.236;5.114;2023-03-03T12:26:19;102724.22;;;19.93;82.30
59170;BME280;52474;52.236;5.114;2023-03-03T12:28:54;102728.44;;;22.02;60.93
59170;BME280;52474;52.236;5.114;2023-03-03T12:31:49;102715.94;;;23.76;54.97
59170;BME280;52474;52.236;5.114;2023-03-03T12:37:19;102721.19;;;24.26;47.65
59170;BME280;52474;52.236;5.114;2023-03-03T12:40:08;102706.38;;;24.36;47.22
59170;BME280;52474;52.236;5.114;2023-03-03T12:48:04;102731.63;;;12.44;100.00
59170;BME280;52474;52.236;5.114;2023-03-03T12:53:59;102729.47;;;10.06;100.00
59170;BME280;52474;52.236;5.114;2023-03-03T12:56:31;102722.66;;;10.51;100.00
59170;BME280;52474;52.236;5.114;2023-03-03T12:59:09;102678.56;;;11.87;100.00
59170;BME280;52474;52.236;5.114;2023-03-03T13:10:17;102726.50;;;10.78;100.00
59170;BME280;52474;52.236;5.114;2023-03-03T13:16:42;102721.31;;;9.94;100.00
59170;BME280;52474;52.236;5.114;2023-03-03T13:19:05;102721.78;;;9.84;100.00
59170;BME280;52474;52.236;5.114;2023-03-03T13:21:41;102711.94;;;10.04;100.00
59170;BME280;52474;52.236;5.114;2023-03-03T13:24:19;102713.84;;;9.84;100.00
59170;BME280;52474;52.236;5.114;2023-03-03T13:27:05;102719.50;;;9.61;100.00
59170;BME280;52474;52.236;5.114;2023-03-03T13:32:19;102721.31;;;9.60;100.00
59170;BME280;52474;52.236;5.114;2023-03-03T13:35:06;102720.53;;;9.41;100.00
59170;BME280;52474;52.236;5.114;2023-03-03T13:37:52;102702.28;;;9.00;100.00
59170;BME280;52474;52.236;5.114;2023-03-03T13:40:21;102719.56;;;8.88;100.00
59170;BME280;52474;52.236;5.114;2023-03-03T13:42:58;102693.84;;;8.55;100.00
59170;BME280;52474;52.236;5.114;2023-03-03T13:45:58;102713.19;;;8.56;100.00
59170;BME280;52474;52.236;5.114;2023-03-03T13:48:30;102716.25;;;8.66;100.00
59170;BME280;52474;52.236;5.114;2023-03-03T13:54:15;102713.19;;;8.56;100.00
59170;BME280;52474;52.236;5.114;2023-03-03T13:57:06;102716.66;;;8.37;100.00
59170;BME280;52474;52.236;5.114;2023-03-03T14:05:51;102720.66;;;8.27;100.00
59170;BME280;52474;52.236;5.114;2023-03-03T14:13:58;102698.09;;;8.20;100.00
59170;BME280;52474;52.236;5.114;2023-03-03T14:19:16;102701.19;;;8.30;100.00
59170;BME280;52474;52.236;5.114;2023-03-03T14:24:59;102709.94;;;8.11;100.00
59170;BME280;52474;52.236;5.114;2023-03-03T14:27:34;102685.38;;;8.09;100.00
59170;BME280;52474;52.236;5.114;2023-03-03T14:30:29;102701.53;;;8.22;100.00
59170;BME280;52474;52.236;5.114;2023-03-03T14:35:29;102673.25;;;8.24;100.00
59170;BME280;52474;52.236;5.114;2023-03-03T14:38:01;102695.06;;;8.48;100.00
59170;BME280;52474;52.236;5.114;2023-03-03T14:40:35;102696.28;;;8.41;100.00
59170;BME280;52474;52.236;5.114;2023-03-03T14:43:17;102694.16;;;8.29;100.00
59170;BME280;52474;52.236;5.114;2023-03-03T14:45:45;102688.03;;;8.09;100.00
59170;BME280;52474;52.236;5.114;2023-03-03T14:48:22;102687.56;;;8.00;100.00
59170;BME280;52474;52.236;5.114;2023-03-03T14:50:52;102685.88;;;7.99;100.00
59170;BME280;52474;52.236;5.114;2023-03-03T14:55:49;102680.31;;;8.05;100.00
59170;BME280;52474;52.236;5.114;2023-03-03T15:01:14;102678.25;;;8.11;100.00
59170;BME280;52474;52.236;5.114;2023-03-03T15:03:46;102642.84;;;7.78;100.00
59170;BME280;52474;52.236;5.114;2023-03-03T15:06:28;102675.56;;;8.13;100.00
59170;BME280;52474;52.236;5.114;2023-03-03T15:08:54;102670.59;;;7.86;100.00
59170;BME280;52474;52.236;5.114;2023-03-03T15:11:25;102655.34;;;7.93;100.00
59170;BME280;52474;52.236;5.114;2023-03-03T15:13:52;102669.34;;;7.95;100.00
59170;BME280;52474;52.236;5.114;2023-03-03T15:16:31;102669.34;;;7.74;100.00
59170;BME280;52474;52.236;5.114;2023-03-03T15:22:21;102665.56;;;7.61;100.00
59170;BME280;52474;52.236;5.114;2023-03-03T15:25:03;102667.84;;;7.69;100.00
59170;BME280;52474;52.236;5.114;2023-03-03T15:27:41;102599.66;;;7.20;100.00
59170;BME280;52474;52.236;5.114;2023-03-03T15:30:34;102650.78;;;7.57;100.00
59170;BME280;52474;52.236;5.114;2023-03-03T15:33:12;102640.09;;;7.60;100.00
59170;BME280;52474;52.236;5.114;2023-03-03T15:38:21;102653.38;;;7.78;100.00
59170;BME280;52474;52.236;5.114;2023-03-03T15:49:35;102656.41;;;7.29;100.00
59170;BME280;52474;52.236;5.114;2023-03-03T15:52:21;102652.44;;;7.19;100.00
59170;BME280;52474;52.236;5.114;2023-03-03T16:00:37;102648.03;;;7.19;100.00
59170;BME280;52474;52.236;5.114;2023-03-03T16:03:16;102639.91;;;7.03;100.00
59170;BME280;52474;52.236;5.114;2023-03-03T16:05:54;102647.25;;;6.95;100.00
59170;BME280;52474;52.236;5.114;2023-03-03T16:08:22;102644.88;;;6.89;100.00
59170;BME280;52474;52.236;5.114;2023-03-03T16:16:46;102644.16;;;6.85;100.00
59170;BME280;52474;52.236;5.114;2023-03-03T16:19:38;102645.28;;;6.80;100.00
59170;BME280;52474;52.236;5.114;2023-03-03T16:25:12;102637.56;;;6.53;100.00
59170;BME280;52474;52.236;5.114;2023-03-03T16:27:49;102642.31;;;6.43;100.00
59170;BME280;52474;52.236;5.114;2023-03-03T16:30:28;102644.94;;;6.43;100.00
59170;BME280;52474;52.236;5.114;2023-03-03T16:33:20;102645.09;;;6.40;100.00
59170;BME280;52474;52.236;5.114;2023-03-03T16:38:20;102640.78;;;6.38;100.00
59170;BME280;52474;52.236;5.114;2023-03-03T16:40:54;102640.28;;;6.28;100.00
59170;BME280;52474;52.236;5.114;2023-03-03T16:43:26;102651.50;;;6.33;100.00
59170;BME280;52474;52.236;5.114;2023-03-03T16:49:02;102642.28;;;6.21;100.00
59170;BME280;52474;52.236;5.114;2023-03-03T16:54:26;102614.84;;;5.81;100.00